Time;durP1;ratioP1;P1;durP2;ratioP2;P2;SDS_P1;SDS_P2;PMS_P1;PMS_P2;Temp;Humidity;BMP_temperature;BMP_pressure;BME280_temperature;BME280_humidity;BME280_pressure;Samples;Min_cycle;Max_cycle;Signal;HPM_P1;HPM_P2
2023/08/30 00:00:05;;;;;;;1.70;0.90;;;19.00;75.60;;;;;;4984505;28;20104;-67
2023/08/30 00:02:30;;;;;;;0.80;0.80;;;19.00;75.50;;;;;;4984364;28;20114;-68
2023/08/30 00:04:59;;;;;;;1.00;0.80;;;19.00;75.60;;;;;;4983250;28;20561;-66
2023/08/30 00:07:25;;;;;;;1.20;1.00;;;19.00;75.60;;;;;;4983450;28;20039;-67
2023/08/30 00:09:50;;;;;;;1.20;0.88;;;19.00;75.70;;;;;;4983176;28;20045;-68
2023/08/30 00:12:16;;;;;;;1.92;1.10;;;19.00;75.80;;;;;;4982178;28;20042;-65
2023/08/30 00:14:41;;;;;;;0.80;0.77;;;19.00;75.60;;;;;;4964226;28;20050;-66
2023/08/30 00:17:07;;;;;;;1.10;0.80;;;19.00;75.80;;;;;;4980672;28;20031;-67
2023/08/30 00:19:32;;;;;;;1.10;0.80;;;19.00;75.70;;;;;;4973896;28;20033;-64
2023/08/30 00:21:58;;;;;;;1.45;0.85;;;19.00;75.80;;;;;;4961832;28;20054;-66
2023/08/30 00:24:23;;;;;;;2.28;0.80;;;19.00;75.40;;;;;;4981056;28;20158;-66
2023/08/30 00:26:49;;;;;;;1.17;0.77;;;19.00;75.50;;;;;;4982228;28;20120;-67
2023/08/30 00:29:14;;;;;;;1.48;0.90;;;19.00;75.40;;;;;;4981065;28;20041;-66
2023/08/30 00:31:40;;;;;;;1.38;1.00;;;19.00;75.60;;;;;;4980189;28;20019;-66
2023/08/30 00:34:05;;;;;;;0.80;0.70;;;19.00;75.40;;;;;;4975671;28;20031;-66
2023/08/30 00:36:31;;;;;;;2.05;1.00;;;19.00;75.80;;;;;;4982762;28;20030;-66
2023/08/30 00:38:57;;;;;;;3.15;1.05;;;19.00;75.70;;;;;;4980852;28;20031;-66
2023/08/30 00:41:22;;;;;;;1.58;1.00;;;19.00;75.60;;;;;;4969880;28;20031;-68
2023/08/30 00:43:48;;;;;;;1.80;1.00;;;19.00;75.60;;;;;;4983792;28;20413;-67
2023/08/30 00:46:14;;;;;;;1.40;1.10;;;19.00;75.40;;;;;;4980142;28;20035;-66
2023/08/30 00:48:40;;;;;;;0.80;0.80;;;19.00;75.50;;;;;;4978665;28;20469;-67
2023/08/30 00:51:06;;;;;;;2.55;1.33;;;19.00;75.50;;;;;;4972637;28;20442;-66
2023/08/30 00:53:32;;;;;;;2.25;0.80;;;19.00;75.40;;;;;;4975985;28;20077;-68
2023/08/30 00:55:58;;;;;;;1.52;1.20;;;19.00;76.00;;;;;;4984549;28;20065;-66
2023/08/30 00:58:26;;;;;;;1.35;1.25;;;19.00;75.40;;;;;;4972544;28;20042;-66
2023/08/30 01:00:52;;;;;;;1.75;1.10;;;19.00;75.40;;;;;;4983904;28;20030;-65
2023/08/30 01:03:18;;;;;;;1.10;0.90;;;19.00;75.40;;;;;;4985198;28;20121;-65
2023/08/30 01:05:44;;;;;;;1.60;1.10;;;19.00;75.60;;;;;;4986443;28;20117;-67
2023/08/30 01:08:11;;;;;;;1.40;1.30;;;19.00;75.40;;;;;;4980738;28;20558;-66
2023/08/30 01:11:01;;;;;;;1.38;1.17;;;19.00;75.40;;;;;;4985242;28;20034;-67
2023/08/30 01:13:30;;;;;;;1.10;1.00;;;19.00;75.50;;;;;;4984716;28;20049;-68
2023/08/30 01:15:57;;;;;;;2.15;1.10;;;19.00;76.00;;;;;;4982676;28;20031;-67
2023/08/30 01:18:26;;;;;;;1.23;1.00;;;19.00;75.40;;;;;;4976126;28;20084;-66
2023/08/30 01:20:54;;;;;;;1.67;0.90;;;19.00;75.30;;;;;;4979404;28;20125;-66
2023/08/30 01:23:49;;;;;;;1.60;0.90;;;19.00;75.40;;;;;;4983811;28;20026;-67
2023/08/30 01:26:33;;;;;;;1.47;1.33;;;19.00;75.60;;;;;;4986255;28;20026;-65
2023/08/30 01:29:01;;;;;;;1.10;0.98;;;19.00;75.60;;;;;;4986085;28;20041;-67
2023/08/30 01:31:29;;;;;;;2.90;1.08;;;19.00;75.50;;;;;;4983522;28;20093;-66
2023/08/30 01:33:56;;;;;;;2.15;1.00;;;19.00;75.60;;;;;;4985779;28;20106;-67
2023/08/30 01:36:22;;;;;;;1.42;0.98;;;18.90;75.60;;;;;;4986578;28;20034;-67
2023/08/30 01:38:48;;;;;;;1.92;1.30;;;18.90;75.70;;;;;;4972677;28;20053;-66
2023/08/30 01:41:15;;;;;;;1.48;0.90;;;18.90;75.60;;;;;;4984614;28;20036;-67
2023/08/30 01:43:42;;;;;;;1.70;1.27;;;18.90;75.40;;;;;;4979630;28;20089;-67
2023/08/30 01:46:09;;;;;;;1.10;1.00;;;19.00;75.50;;;;;;4982113;28;20061;-67
2023/08/30 01:48:35;;;;;;;1.10;1.00;;;19.00;75.60;;;;;;4978627;28;20041;-66
2023/08/30 01:51:01;;;;;;;1.08;0.90;;;19.00;75.60;;;;;;4983951;28;20110;-66
2023/08/30 01:53:28;;;;;;;1.10;0.90;;;19.00;75.60;;;;;;4977023;28;20092;-65
2023/08/30 01:55:54;;;;;;;1.23;1.00;;;18.90;75.40;;;;;;4976537;28;20027;-68
2023/08/30 01:58:20;;;;;;;1.27;1.10;;;19.00;75.60;;;;;;4984889;28;20085;-67
2023/08/30 02:00:45;;;;;;;1.35;0.98;;;18.90;75.50;;;;;;4985266;28;20169;-67
2023/08/30 02:03:12;;;;;;;1.92;1.25;;;18.90;75.50;;;;;;4976977;28;20110;-67
2023/08/30 02:05:51;;;;;;;1.08;0.95;;;19.00;75.50;;;;;;4986403;28;20062;-67
2023/08/30 02:08:17;;;;;;;1.20;0.82;;;18.90;75.70;;;;;;4981240;28;20049;-67
2023/08/30 02:10:55;;;;;;;1.38;1.20;;;18.90;75.00;;;;;;4981534;28;20034;-67
2023/08/30 02:13:26;;;;;;;0.85;0.85;;;18.90;75.70;;;;;;4979293;28;20065;-66
2023/08/30 02:15:54;;;;;;;1.15;1.02;;;18.90;75.50;;;;;;4973850;28;20456;-67
2023/08/30 02:18:20;;;;;;;1.00;0.90;;;18.90;75.50;;;;;;4976189;28;20092;-67
2023/08/30 02:20:46;;;;;;;1.85;0.90;;;18.90;75.50;;;;;;4981995;28;20208;-66
2023/08/30 02:23:12;;;;;;;1.35;1.13;;;18.90;75.60;;;;;;4979521;28;20031;-65
2023/08/30 02:25:37;;;;;;;1.20;0.95;;;18.90;75.50;;;;;;4982858;28;20045;-66
2023/08/30 02:28:03;;;;;;;1.55;0.88;;;18.90;75.60;;;;;;4984641;28;20038;-66
2023/08/30 02:30:29;;;;;;;1.10;1.02;;;18.90;75.50;;;;;;4981167;28;20444;-67
2023/08/30 02:32:54;;;;;;;1.10;1.00;;;18.90;75.50;;;;;;4985100;28;20378;-67
2023/08/30 02:35:20;;;;;;;1.52;1.02;;;18.90;75.50;;;;;;4985067;28;20034;-66
2023/08/30 02:37:46;;;;;;;1.35;1.08;;;18.90;75.80;;;;;;4977574;28;20054;-66
2023/08/30 02:40:11;;;;;;;0.82;0.82;;;18.90;75.70;;;;;;4971857;28;20030;-68
2023/08/30 02:42:37;;;;;;;1.95;0.98;;;18.90;75.60;;;;;;4979481;28;20041;-66
2023/08/30 02:45:02;;;;;;;1.00;0.90;;;18.90;75.50;;;;;;4986983;28;20649;-67
2023/08/30 02:47:28;;;;;;;1.70;1.00;;;18.90;75.50;;;;;;4985512;28;20117;-67
2023/08/30 02:49:53;;;;;;;1.40;0.95;;;18.90;75.60;;;;;;4972525;28;20113;-68
2023/08/30 02:52:19;;;;;;;1.25;0.85;;;18.90;75.70;;;;;;4985013;28;20046;-67
2023/08/30 02:54:44;;;;;;;1.35;1.08;;;18.90;75.60;;;;;;4971460;28;20452;-67
2023/08/30 02:57:10;;;;;;;1.02;0.90;;;18.90;75.50;;;;;;4981381;28;20019;-68
2023/08/30 02:59:36;;;;;;;0.93;0.80;;;18.90;75.60;;;;;;4976774;28;20667;-66
2023/08/30 03:02:01;;;;;;;0.80;0.80;;;18.90;75.70;;;;;;4981488;28;20031;-67
2023/08/30 03:04:28;;;;;;;2.35;1.05;;;18.90;75.60;;;;;;4970743;28;20023;-68
2023/08/30 03:06:53;;;;;;;1.17;1.08;;;18.90;75.60;;;;;;4983581;28;20735;-65
2023/08/30 03:09:19;;;;;;;1.30;0.70;;;18.90;75.60;;;;;;4982091;28;20023;-65
2023/08/30 03:11:45;;;;;;;1.08;0.80;;;18.90;75.50;;;;;;4979683;28;20497;-65
2023/08/30 03:14:10;;;;;;;1.17;1.08;;;18.90;75.60;;;;;;4980468;28;20041;-65
2023/08/30 03:16:35;;;;;;;2.35;1.15;;;18.90;75.70;;;;;;4982716;28;20092;-64
2023/08/30 03:19:02;;;;;;;1.42;0.88;;;18.90;75.50;;;;;;4970168;28;20026;-65
2023/08/30 03:21:27;;;;;;;2.47;0.90;;;18.90;75.60;;;;;;4978471;28;20666;-66
2023/08/30 03:23:53;;;;;;;1.35;0.90;;;18.90;75.60;;;;;;4974747;28;20111;-66
2023/08/30 03:26:18;;;;;;;1.08;0.90;;;18.90;75.70;;;;;;4979930;28;20430;-67
2023/08/30 03:28:44;;;;;;;1.00;0.90;;;18.90;75.70;;;;;;4978964;28;20122;-67
2023/08/30 03:31:20;;;;;;;3.17;1.02;;;18.90;75.60;;;;;;4982135;28;20031;-66
2023/08/30 03:33:47;;;;;;;3.38;1.10;;;18.90;75.40;;;;;;4980663;28;20034;-66
2023/08/30 03:36:15;;;;;;;1.25;1.05;;;18.90;75.70;;;;;;4983598;28;20109;-65
2023/08/30 03:38:41;;;;;;;2.05;0.70;;;18.90;75.70;;;;;;4981581;28;20485;-66
2023/08/30 03:41:06;;;;;;;0.85;0.80;;;18.90;75.60;;;;;;4975353;28;20031;-67
2023/08/30 03:43:32;;;;;;;0.93;0.70;;;18.90;75.80;;;;;;4975565;28;20497;-68
2023/08/30 03:46:02;;;;;;;3.03;0.98;;;18.90;75.80;;;;;;4985102;28;20165;-67
2023/08/30 03:48:29;;;;;;;2.13;0.95;;;18.90;75.60;;;;;;4984920;28;20026;-67
2023/08/30 03:50:55;;;;;;;1.70;0.88;;;18.90;75.60;;;;;;4972250;28;20034;-65
2023/08/30 03:53:21;;;;;;;1.92;1.05;;;18.90;75.60;;;;;;4984918;28;20037;-65
2023/08/30 03:55:46;;;;;;;1.33;1.10;;;18.90;75.70;;;;;;4974955;28;20031;-66
2023/08/30 03:58:12;;;;;;;2.13;1.05;;;18.90;75.60;;;;;;4974878;28;20023;-65
2023/08/30 04:00:38;;;;;;;2.38;1.00;;;18.90;75.80;;;;;;4968971;28;20039;-67
2023/08/30 04:03:05;;;;;;;1.10;0.95;;;18.90;75.40;;;;;;4976271;28;20027;-67
2023/08/30 04:05:35;;;;;;;1.48;1.20;;;18.90;75.50;;;;;;4976044;28;20038;-66
2023/08/30 04:08:02;;;;;;;1.85;1.52;;;18.80;75.60;;;;;;4980707;28;20034;-67
2023/08/30 04:10:27;;;;;;;2.08;1.05;;;18.80;75.80;;;;;;4979179;28;20033;-66
2023/08/30 04:12:53;;;;;;;0.98;0.88;;;18.80;75.70;;;;;;4978652;28;20034;-66
2023/08/30 04:15:18;;;;;;;1.33;0.90;;;18.90;75.70;;;;;;4986183;28;20034;-66
2023/08/30 04:17:44;;;;;;;1.30;1.20;;;18.80;75.70;;;;;;4971774;28;20110;-67
2023/08/30 04:20:12;;;;;;;0.82;0.82;;;18.80;75.60;;;;;;4974887;28;20513;-65
2023/08/30 04:22:38;;;;;;;0.80;0.80;;;18.80;75.50;;;;;;4979199;28;20026;-67
2023/08/30 04:25:04;;;;;;;1.20;1.02;;;18.90;75.60;;;;;;4986891;28;20045;-67
2023/08/30 04:27:30;;;;;;;1.27;1.17;;;18.80;75.70;;;;;;4981397;28;20037;-67
2023/08/30 04:29:56;;;;;;;1.55;1.00;;;18.80;75.70;;;;;;4980668;28;20034;-67
2023/08/30 04:32:21;;;;;;;0.88;0.85;;;18.80;75.70;;;;;;4982767;28;20034;-67
2023/08/30 04:34:47;;;;;;;1.30;1.10;;;18.80;75.60;;;;;;4981462;28;20026;-68
2023/08/30 04:37:13;;;;;;;2.45;1.50;;;18.80;75.70;;;;;;4983551;28;20026;-66
2023/08/30 04:39:39;;;;;;;1.55;1.10;;;18.80;75.80;;;;;;4980320;28;20030;-66
2023/08/30 04:42:05;;;;;;;2.20;1.10;;;18.90;75.70;;;;;;4978296;28;20038;-66
2023/08/30 04:44:32;;;;;;;0.80;0.80;;;18.90;75.70;;;;;;4979721;28;20697;-66
2023/08/30 04:46:57;;;;;;;1.35;1.23;;;18.90;75.80;;;;;;4972392;28;20035;-67
2023/08/30 04:49:25;;;;;;;1.77;1.10;;;18.90;75.60;;;;;;4979644;28;20506;-66
2023/08/30 04:51:50;;;;;;;1.67;1.00;;;18.90;75.70;;;;;;4980426;28;20118;-65
2023/08/30 04:54:16;;;;;;;2.28;1.02;;;18.90;75.60;;;;;;4985851;28;20633;-66
2023/08/30 04:56:42;;;;;;;3.65;1.55;;;18.90;75.40;;;;;;4973392;28;20451;-66
2023/08/30 04:59:07;;;;;;;2.38;1.10;;;18.80;75.40;;;;;;4979876;28;20537;-67
2023/08/30 05:01:33;;;;;;;1.58;1.08;;;18.80;75.40;;;;;;4979783;28;20039;-67
2023/08/30 05:03:58;;;;;;;2.75;1.13;;;18.80;75.50;;;;;;4976001;28;20577;-68
2023/08/30 05:06:24;;;;;;;1.55;1.20;;;18.80;75.50;;;;;;4986732;28;20444;-66
2023/08/30 05:08:49;;;;;;;2.72;1.60;;;18.80;75.50;;;;;;4979130;28;20031;-65
2023/08/30 05:11:15;;;;;;;2.72;1.50;;;18.80;75.40;;;;;;4979136;28;20023;-66
2023/08/30 05:13:41;;;;;;;5.65;1.42;;;18.80;75.30;;;;;;4980823;28;20042;-68
2023/08/30 05:16:06;;;;;;;7.40;2.42;;;18.80;75.60;;;;;;4985288;28;20086;-64
2023/08/30 05:18:32;;;;;;;7.13;3.53;;;18.80;75.80;;;;;;4984111;28;20409;-68
2023/08/30 05:20:57;;;;;;;7.63;3.15;;;18.80;75.60;;;;;;4968923;28;20030;-65
2023/08/30 05:23:23;;;;;;;5.85;4.65;;;18.80;75.80;;;;;;4976821;28;20030;-67
2023/08/30 05:25:48;;;;;;;4.32;3.40;;;18.90;75.80;;;;;;4985775;28;20054;-67
2023/08/30 05:28:14;;;;;;;5.43;3.55;;;18.90;75.70;;;;;;4986812;28;20041;-66
2023/08/30 05:30:43;;;;;;;2.80;2.40;;;18.90;75.40;;;;;;4982183;28;20035;-67
2023/08/30 05:33:08;;;;;;;6.30;2.47;;;18.80;75.70;;;;;;4986302;28;20387;-66
2023/08/30 05:35:34;;;;;;;7.10;2.67;;;18.90;75.60;;;;;;4985855;28;20112;-65
2023/08/30 05:37:59;;;;;;;3.72;2.38;;;18.90;75.70;;;;;;4981723;28;20043;-65
2023/08/30 05:40:25;;;;;;;6.45;2.17;;;18.90;75.60;;;;;;4978674;28;20035;-67
2023/08/30 05:42:50;;;;;;;4.82;2.30;;;18.90;75.50;;;;;;4973276;28;20671;-67
2023/08/30 05:45:16;;;;;;;3.95;2.50;;;18.90;75.40;;;;;;4980743;28;20117;-66
2023/08/30 05:47:42;;;;;;;3.67;2.42;;;18.90;75.40;;;;;;4976991;28;20038;-62
2023/08/30 05:50:07;;;;;;;3.83;1.92;;;18.90;75.50;;;;;;4970679;28;20038;-66
2023/08/30 05:52:33;;;;;;;2.92;1.80;;;18.90;75.50;;;;;;4976945;28;20038;-64
2023/08/30 05:54:59;;;;;;;4.63;1.95;;;18.90;75.40;;;;;;4976835;28;20665;-65
2023/08/30 05:57:25;;;;;;;3.97;1.88;;;18.90;75.40;;;;;;4977213;28;20078;-65
2023/08/30 05:59:51;;;;;;;3.42;2.00;;;18.90;75.50;;;;;;4977853;28;20110;-65
2023/08/30 06:02:16;;;;;;;2.25;2.00;;;18.90;75.40;;;;;;4977370;28;20034;-67
2023/08/30 06:04:42;;;;;;;2.72;1.60;;;18.90;75.60;;;;;;4984516;28;20453;-65
2023/08/30 06:07:08;;;;;;;2.40;1.88;;;18.90;75.60;;;;;;4975982;28;20490;-65
2023/08/30 06:09:33;;;;;;;2.17;1.92;;;18.90;75.40;;;;;;4977573;28;20113;-66
2023/08/30 06:11:59;;;;;;;4.28;2.10;;;18.90;75.60;;;;;;4974163;28;20401;-65
2023/08/30 06:14:24;;;;;;;3.97;2.30;;;18.90;75.40;;;;;;4979455;28;20530;-64
2023/08/30 06:16:50;;;;;;;3.88;1.98;;;18.90;75.50;;;;;;4985717;28;20076;-65
2023/08/30 06:19:15;;;;;;;4.85;2.85;;;19.00;75.60;;;;;;4983322;28;20038;-66
2023/08/30 06:21:41;;;;;;;2.72;2.22;;;18.90;75.40;;;;;;4977084;28;20089;-65
2023/08/30 06:24:08;;;;;;;6.70;2.60;;;18.90;75.50;;;;;;4983464;28;20048;-66
2023/08/30 06:26:33;;;;;;;6.10;1.80;;;18.90;75.20;;;;;;4976761;28;20031;-66
2023/08/30 06:28:58;;;;;;;3.70;1.83;;;18.90;75.50;;;;;;4984847;28;20736;-67
2023/08/30 06:31:24;;;;;;;3.95;2.03;;;18.90;75.60;;;;;;4985280;28;20171;-66
2023/08/30 06:33:50;;;;;;;3.22;2.00;;;19.00;75.60;;;;;;4985999;28;20394;-66
2023/08/30 06:36:17;;;;;;;5.18;1.98;;;18.90;75.60;;;;;;4983944;28;20041;-65
2023/08/30 06:38:43;;;;;;;5.28;1.90;;;18.90;75.60;;;;;;4975436;28;20042;-65
2023/08/30 06:41:08;;;;;;;7.13;2.03;;;18.90;75.50;;;;;;4970564;28;20453;-67
2023/08/30 06:43:34;;;;;;;5.35;2.22;;;18.90;75.40;;;;;;4968742;28;20046;-68
2023/08/30 06:45:59;;;;;;;6.68;2.17;;;18.90;75.20;;;;;;4976100;28;20098;-66
2023/08/30 06:48:25;;;;;;;7.55;2.88;;;18.90;75.10;;;;;;4975668;28;20049;-68
2023/08/30 06:50:50;;;;;;;6.90;3.25;;;18.90;75.20;;;;;;4968055;28;20437;-66
2023/08/30 06:53:16;;;;;;;6.75;2.95;;;19.00;75.10;;;;;;4966960;28;20033;-67
2023/08/30 06:55:41;;;;;;;7.68;3.80;;;19.00;75.20;;;;;;4967753;28;20034;-66
2023/08/30 06:58:07;;;;;;;6.43;3.42;;;19.00;75.20;;;;;;4985562;28;20030;-68
2023/08/30 07:00:33;;;;;;;6.57;3.20;;;19.10;75.30;;;;;;4978959;28;20045;-67
2023/08/30 07:02:58;;;;;;;6.88;3.72;;;19.10;75.50;;;;;;4984415;28;20674;-68
2023/08/30 07:05:24;;;;;;;8.13;3.10;;;19.10;75.40;;;;;;4983074;28;20030;-66
2023/08/30 07:07:49;;;;;;;7.00;3.28;;;19.10;75.50;;;;;;4957007;28;20445;-65
2023/08/30 07:10:15;;;;;;;6.90;3.10;;;19.20;75.60;;;;;;4981956;28;20065;-64
2023/08/30 07:12:40;;;;;;;6.63;3.30;;;19.20;75.50;;;;;;4983466;28;20044;-68
2023/08/30 07:15:07;;;;;;;5.25;2.65;;;19.20;75.30;;;;;;4983299;28;20049;-68
2023/08/30 07:17:32;;;;;;;9.80;3.10;;;19.20;75.50;;;;;;4982228;28;20046;-68
2023/08/30 07:19:58;;;;;;;5.65;2.92;;;19.20;75.40;;;;;;4979080;28;20496;-67
2023/08/30 07:22:23;;;;;;;5.53;3.00;;;19.30;75.50;;;;;;4981857;28;20037;-67
2023/08/30 07:24:49;;;;;;;5.05;2.70;;;19.30;75.30;;;;;;4980030;28;20121;-67
2023/08/30 07:27:14;;;;;;;7.68;2.75;;;19.30;75.40;;;;;;4983498;28;20084;-67
2023/08/30 07:29:40;;;;;;;7.43;2.45;;;19.30;75.40;;;;;;4982096;28;20022;-68
2023/08/30 07:32:07;;;;;;;10.80;2.60;;;19.30;75.20;;;;;;4984584;28;20125;-64
2023/08/30 07:34:32;;;;;;;4.50;2.28;;;19.30;75.10;;;;;;4981854;28;20121;-67
2023/08/30 07:36:58;;;;;;;3.33;1.70;;;19.30;75.00;;;;;;4983547;28;20596;-67
2023/08/30 07:39:23;;;;;;;6.38;2.13;;;19.30;74.60;;;;;;4984343;28;20014;-68
2023/08/30 07:41:49;;;;;;;9.00;2.17;;;19.20;74.30;;;;;;4975445;28;20027;-67
2023/08/30 07:44:15;;;;;;;3.45;1.80;;;19.30;74.40;;;;;;4983075;28;20402;-69
2023/08/30 07:46:40;;;;;;;4.20;2.20;;;19.30;74.40;;;;;;4982700;28;20026;-67
2023/08/30 07:49:06;;;;;;;4.10;1.70;;;19.30;74.20;;;;;;4980894;28;20035;-65
2023/08/30 07:51:31;;;;;;;2.38;1.60;;;19.30;74.10;;;;;;4978108;28;20035;-67
2023/08/30 07:53:57;;;;;;;7.20;2.45;;;19.30;73.90;;;;;;4982308;28;20037;-67
2023/08/30 07:56:22;;;;;;;5.40;2.42;;;19.40;73.80;;;;;;4983986;28;20249;-68
2023/08/30 07:58:48;;;;;;;2.95;2.13;;;19.30;73.80;;;;;;4984087;28;20037;-67
2023/08/30 08:01:14;;;;;;;4.47;1.52;;;19.30;73.60;;;;;;4985303;28;20031;-67
2023/08/30 08:03:41;;;;;;;3.47;1.60;;;19.30;73.90;;;;;;4984118;28;20034;-67
2023/08/30 08:06:06;;;;;;;2.78;1.67;;;19.30;74.00;;;;;;4984967;28;20034;-66
2023/08/30 08:08:32;;;;;;;2.60;1.70;;;19.20;74.00;;;;;;4983985;28;20460;-67
2023/08/30 08:10:59;;;;;;;2.95;1.90;;;19.20;74.00;;;;;;4985685;28;20039;-67
2023/08/30 08:13:24;;;;;;;5.72;1.95;;;19.20;74.20;;;;;;4989747;28;20145;-65
2023/08/30 08:15:50;;;;;;;5.95;2.28;;;19.20;74.00;;;;;;4987990;28;20516;-68
2023/08/30 08:18:15;;;;;;;4.28;1.63;;;19.20;74.30;;;;;;4985900;28;20034;-66
2023/08/30 08:20:41;;;;;;;6.20;2.13;;;19.20;74.60;;;;;;4982901;28;20030;-68
2023/08/30 08:23:06;;;;;;;4.38;1.88;;;19.20;74.30;;;;;;4986547;28;20498;-68
2023/08/30 08:25:32;;;;;;;6.75;3.75;;;19.20;74.30;;;;;;4981353;28;20042;-67
2023/08/30 08:27:57;;;;;;;4.00;1.80;;;19.20;74.20;;;;;;4970401;28;20022;-66
2023/08/30 08:30:23;;;;;;;4.57;2.35;;;19.20;74.20;;;;;;4977171;28;20023;-68
2023/08/30 08:32:48;;;;;;;3.08;1.60;;;19.20;74.20;;;;;;4983021;28;20031;-67
2023/08/30 08:35:14;;;;;;;3.40;1.90;;;19.20;74.20;;;;;;4986728;28;20319;-67
2023/08/30 08:37:40;;;;;;;3.58;1.90;;;19.20;74.00;;;;;;4991801;28;20031;-67
2023/08/30 08:40:08;;;;;;;2.42;1.58;;;19.20;74.10;;;;;;4991931;28;20405;-67
2023/08/30 08:42:34;;;;;;;4.20;2.00;;;19.20;74.10;;;;;;4984658;28;20416;-67
2023/08/30 08:45:04;;;;;;;2.40;2.08;;;19.20;74.00;;;;;;4984135;28;20031;-67
2023/08/30 08:47:31;;;;;;;3.67;1.98;;;19.20;74.00;;;;;;4983427;28;20038;-67
2023/08/30 08:49:57;;;;;;;7.78;2.22;;;19.20;73.90;;;;;;4973753;28;20047;-67
2023/08/30 08:52:24;;;;;;;5.63;2.22;;;19.20;73.80;;;;;;4988080;28;20033;-67
2023/08/30 08:54:50;;;;;;;5.50;1.70;;;19.20;73.70;;;;;;4991025;28;20034;-67
2023/08/30 08:57:16;;;;;;;3.72;2.22;;;19.20;73.60;;;;;;4984130;28;20149;-67
2023/08/30 08:59:42;;;;;;;3.55;2.08;;;19.20;73.50;;;;;;4986628;28;20031;-69
2023/08/30 09:02:08;;;;;;;5.40;1.70;;;19.20;73.50;;;;;;4987784;28;20089;-67
2023/08/30 09:04:34;;;;;;;4.75;1.95;;;19.20;73.40;;;;;;4976833;28;20111;-67
2023/08/30 09:07:00;;;;;;;4.97;1.98;;;19.20;73.40;;;;;;4989689;28;20693;-67
2023/08/30 09:09:26;;;;;;;2.42;1.83;;;19.20;73.30;;;;;;4985930;28;20027;-66
2023/08/30 09:11:51;;;;;;;4.78;2.53;;;19.10;73.20;;;;;;4971122;28;20066;-67
2023/08/30 09:14:18;;;;;;;5.50;2.30;;;19.20;73.20;;;;;;4971985;28;20026;-67
2023/08/30 09:16:53;;;;;;;4.38;1.90;;;18.90;71.00;;;;;;4984002;28;20046;-68
2023/08/30 09:19:20;;;;;;;7.80;2.88;;;18.90;72.70;;;;;;4985265;28;20042;-68
2023/08/30 09:21:53;;;;;;;4.70;2.40;;;19.00;72.70;;;;;;4987032;28;20035;-68
2023/08/30 09:24:19;;;;;;;4.40;2.60;;;19.00;72.70;;;;;;4975277;28;20026;-67
2023/08/30 09:26:49;;;;;;;5.00;2.92;;;19.10;71.20;;;;;;4971874;28;20034;-66
2023/08/30 09:29:17;;;;;;;4.30;2.47;;;19.00;70.70;;;;;;4983840;28;20662;-67
2023/08/30 09:31:43;;;;;;;3.75;2.25;;;19.00;71.70;;;;;;4983260;28;20034;-67
2023/08/30 09:34:11;;;;;;;4.15;2.50;;;19.00;72.50;;;;;;4976147;28;20041;-67
2023/08/30 09:36:38;;;;;;;3.63;2.90;;;19.10;72.50;;;;;;4985444;28;20037;-68
2023/08/30 09:39:14;;;;;;;3.10;2.17;;;19.10;72.30;;;;;;4986734;28;20035;-67
2023/08/30 09:41:48;;;;;;;7.25;3.28;;;19.10;72.30;;;;;;4981807;28;20038;-67
2023/08/30 09:44:18;;;;;;;5.60;3.40;;;19.10;72.30;;;;;;4948107;28;20042;-67
2023/08/30 09:46:46;;;;;;;5.80;3.15;;;19.10;71.70;;;;;;4985845;28;20501;-67
2023/08/30 09:49:12;;;;;;;6.47;3.28;;;19.10;72.00;;;;;;4990342;28;20038;-68
2023/08/30 09:51:42;;;;;;;7.38;3.28;;;19.10;72.20;;;;;;4986412;28;20046;-68
2023/08/30 09:54:20;;;;;;;6.93;3.42;;;19.10;72.30;;;;;;4983543;28;20397;-67
2023/08/30 09:56:46;;;;;;;6.28;2.88;;;19.10;72.30;;;;;;4969143;28;20118;-67
2023/08/30 09:59:14;;;;;;;5.65;3.00;;;19.10;72.30;;;;;;4974406;28;20030;-67
2023/08/30 10:01:41;;;;;;;5.50;2.33;;;19.10;72.40;;;;;;4977535;28;20117;-67
2023/08/30 10:04:10;;;;;;;5.88;2.63;;;19.10;72.50;;;;;;4981004;28;20026;-67
2023/08/30 10:06:37;;;;;;;3.88;2.60;;;19.10;72.30;;;;;;4986774;28;20481;-68
2023/08/30 10:09:04;;;;;;;3.42;2.40;;;19.10;72.30;;;;;;4986291;28;20105;-67
2023/08/30 10:11:34;;;;;;;3.05;2.38;;;19.10;72.30;;;;;;4980051;28;20041;-68
2023/08/30 10:14:00;;;;;;;3.78;2.00;;;19.10;72.30;;;;;;4970085;28;20037;-68
2023/08/30 10:16:27;;;;;;;3.10;2.17;;;19.10;72.20;;;;;;4987510;28;20513;-68
2023/08/30 10:18:59;;;;;;;3.95;2.10;;;19.10;72.00;;;;;;4986588;28;20046;-67
2023/08/30 10:21:27;;;;;;;4.07;2.40;;;19.10;71.60;;;;;;4986987;28;20092;-67
2023/08/30 10:23:55;;;;;;;5.25;2.00;;;19.10;70.30;;;;;;4970646;28;20112;-67
2023/08/30 10:26:25;;;;;;;3.55;2.10;;;19.10;71.30;;;;;;4981225;28;20042;-67
2023/08/30 10:28:54;;;;;;;3.35;2.08;;;19.10;71.60;;;;;;4968388;28;20057;-66
2023/08/30 10:31:20;;;;;;;2.67;1.80;;;19.10;71.70;;;;;;4982944;28;20522;-67
2023/08/30 10:33:53;;;;;;;3.28;2.00;;;19.10;71.80;;;;;;4972990;28;20034;-67
2023/08/30 10:36:26;;;;;;;1.80;1.70;;;19.10;71.90;;;;;;4981037;28;20040;-67
2023/08/30 10:38:53;;;;;;;1.98;1.77;;;19.10;71.80;;;;;;4966802;28;20039;-67
2023/08/30 10:41:26;;;;;;;2.90;1.77;;;19.00;66.50;;;;;;4987286;28;20046;-67
2023/08/30 10:43:54;;;;;;;2.42;1.77;;;19.00;67.80;;;;;;4974162;28;20058;-66
2023/08/30 10:46:33;;;;;;;4.15;1.98;;;19.00;70.10;;;;;;4985373;28;20038;-68
2023/08/30 10:49:19;;;;;;;2.63;2.08;;;19.00;70.50;;;;;;4975022;28;20509;-67
2023/08/30 10:51:44;;;;;;;2.53;1.63;;;19.00;69.70;;;;;;4957976;28;20035;-66
2023/08/30 10:54:14;;;;;;;5.90;1.85;;;19.00;70.30;;;;;;4963370;28;20034;-66
2023/08/30 10:56:51;;;;;;;3.42;1.73;;;19.10;71.00;;;;;;4977559;28;20026;-66
2023/08/30 10:59:21;;;;;;;2.00;1.48;;;19.10;70.90;;;;;;4974729;28;20595;-67
2023/08/30 11:01:48;;;;;;;2.25;1.35;;;19.10;70.80;;;;;;4980318;28;20058;-66
2023/08/30 11:04:15;;;;;;;3.28;1.45;;;19.10;70.50;;;;;;4975638;28;20072;-68
2023/08/30 11:06:49;;;;;;;3.47;1.92;;;19.10;69.50;;;;;;4983952;28;20081;-67
2023/08/30 11:09:19;;;;;;;3.22;1.83;;;19.10;70.10;;;;;;4983879;28;20037;-66
2023/08/30 11:11:48;;;;;;;1.58;1.48;;;19.00;69.90;;;;;;4982793;28;20030;-66
2023/08/30 11:14:15;;;;;;;4.78;1.90;;;19.10;69.20;;;;;;4969177;28;20145;-66
2023/08/30 11:16:41;;;;;;;2.30;1.67;;;19.10;67.00;;;;;;4976925;28;20117;-66
2023/08/30 11:19:08;;;;;;;2.13;1.50;;;19.10;68.30;;;;;;4963893;28;20114;-66
2023/08/30 11:21:37;;;;;;;1.58;1.45;;;19.10;69.70;;;;;;4985464;28;20524;-67
2023/08/30 11:24:06;;;;;;;3.75;1.67;;;19.10;70.10;;;;;;4986880;28;20041;-66
2023/08/30 11:26:32;;;;;;;2.67;1.65;;;19.10;70.10;;;;;;4978933;28;20413;-67
2023/08/30 11:29:03;;;;;;;4.18;2.00;;;19.10;70.20;;;;;;4987891;28;20031;-68
2023/08/30 11:31:29;;;;;;;2.78;1.40;;;19.10;68.10;;;;;;4990061;28;20030;-66
2023/08/30 11:33:56;;;;;;;2.05;1.38;;;19.10;67.70;;;;;;4986714;28;20100;-64
2023/08/30 11:36:26;;;;;;;3.28;1.42;;;19.00;69.10;;;;;;4976549;28;20037;-68
2023/08/30 11:38:53;;;;;;;4.53;1.70;;;19.00;66.90;;;;;;4978007;28;20049;-66
2023/08/30 11:41:20;;;;;;;1.90;1.70;;;19.00;68.80;;;;;;4980110;28;20022;-67
2023/08/30 11:43:48;;;;;;;1.60;1.50;;;19.10;70.10;;;;;;4976508;28;20033;-67
2023/08/30 11:46:14;;;;;;;4.00;1.55;;;19.10;70.00;;;;;;4980265;28;20409;-66
2023/08/30 11:48:43;;;;;;;1.70;1.40;;;19.10;67.50;;;;;;4967333;28;20027;-66
2023/08/30 11:51:09;;;;;;;2.45;1.48;;;19.10;67.80;;;;;;4981314;28;20089;-67
2023/08/30 11:53:35;;;;;;;1.50;1.40;;;19.00;69.30;;;;;;4976946;28;20046;-67
2023/08/30 11:56:01;;;;;;;3.58;1.40;;;19.00;69.30;;;;;;4985387;28;20609;-67
2023/08/30 11:58:27;;;;;;;3.70;1.48;;;19.00;68.80;;;;;;4978752;28;20031;-67
2023/08/30 12:00:54;;;;;;;3.20;1.48;;;19.10;69.70;;;;;;4980148;28;20621;-67
2023/08/30 12:03:22;;;;;;;2.28;1.35;;;19.10;69.90;;;;;;4983956;28;20026;-67
2023/08/30 12:05:50;;;;;;;2.42;1.15;;;19.10;70.00;;;;;;4979011;28;20034;-67
2023/08/30 12:08:24;;;;;;;2.47;1.63;;;19.10;70.00;;;;;;4982938;28;20030;-67
2023/08/30 12:10:50;;;;;;;2.83;1.98;;;19.00;69.90;;;;;;4982396;28;20041;-67
2023/08/30 12:13:22;;;;;;;2.22;1.75;;;19.10;70.00;;;;;;4963561;28;20034;-68
2023/08/30 12:15:48;;;;;;;2.83;1.40;;;19.10;70.00;;;;;;4978331;28;20043;-66
2023/08/30 12:18:13;;;;;;;1.98;1.48;;;19.10;69.80;;;;;;4982636;28;20133;-67
2023/08/30 12:20:39;;;;;;;2.75;1.73;;;19.10;69.10;;;;;;4981589;28;20114;-67
2023/08/30 12:23:04;;;;;;;2.03;1.60;;;19.10;70.30;;;;;;4983759;28;20695;-67
2023/08/30 12:25:32;;;;;;;2.40;1.55;;;19.10;69.70;;;;;;4982759;28;20046;-66
2023/08/30 12:27:57;;;;;;;1.90;1.30;;;19.10;69.60;;;;;;4982809;28;20069;-67
2023/08/30 12:30:23;;;;;;;4.97;1.63;;;19.10;69.20;;;;;;4981277;28;20030;-67
2023/08/30 12:32:48;;;;;;;1.90;1.38;;;19.10;68.60;;;;;;4977830;28;20586;-66
2023/08/30 12:35:14;;;;;;;2.65;1.10;;;19.10;68.60;;;;;;4983036;28;20089;-67
2023/08/30 12:37:40;;;;;;;2.22;1.60;;;19.10;69.40;;;;;;4980909;28;20050;-67
2023/08/30 12:40:06;;;;;;;1.73;1.30;;;19.10;69.70;;;;;;4982757;28;20064;-67
2023/08/30 12:42:32;;;;;;;2.03;1.50;;;19.10;69.60;;;;;;4980962;28;20058;-68
2023/08/30 12:44:58;;;;;;;2.50;1.40;;;19.20;69.50;;;;;;4977355;28;20027;-67